< < Back
Terminal Aerodrome Forecast


Current Version              Previous Versions:   1  2  3  4  5  6  7  8  9  

Terminal Aerodrome Forecast

742
FTUS42 KGSP 221400 AAA
TAFAVL
TAF AMD
KAVL 221443Z 2215/2312 35015G23KT P6SM SCT035
      TEMPO 2215/2218 BKN030
     FM222300 35011KT P6SM FEW250=



Latest METAR

620
SAUS70 KWBC 230000 RRF
MTRAVL
METAR KAVL 222354Z 34017KT 10SM CLR 09/03 A3015 RMK AO2 SLP206 T00940028
10139 20094 51007


USA.gov is the U.S. government's official web portal to all federal, state and local government web resources and services.